Galesburg, Iowa
Current Conditions -  °F | °C
As of 9:55 AM on Friday 21 Nov 2014 (Local Time) from KTNU Reporting Station
Clear Clear  
Wind Chill:   Ceiling: Unl
Heat Index: 21°   Visibility: 10mi
Dew Point: 14°   Wind: 16mph
Humidity: 74%   Direction: 150°SSE
Pressure: 30.31"   Gusts: NA
Location:  41.587°N, 93.0159°W
Report Text: KTNU 211555Z AUTO 15014KT 10SM CLR M06/M10 A3031 RMK AO2
Loading
Personal Weather Stations






























Interactive Weather Map New forecast layout! Learn more

10-Day Weather Forecast

Advertisements
Track Severe Weather on mobile